Time;durP1;ratioP1;P1;durP2;ratioP2;P2;SDS_P1;SDS_P2;PMS_P1;PMS_P2;Temp;Humidity;BMP_temperature;BMP_pressure;BME280_temperature;BME280_humidity;BME280_pressure;Samples;Min_cycle;Max_cycle;Signal;HPM_P1;HPM_P2
2023/09/01 00:00:13;;;;;;;8.35;4.20;;;;;;;14.56;100.00;95013.94;5065931;28;20458;-94
2023/09/01 00:02:39;;;;;;;7.18;5.18;;;;;;;14.68;100.00;95015.00;5050162;28;20236;-95
2023/09/01 00:05:05;;;;;;;5.40;4.38;;;;;;;14.37;100.00;95032.88;5066949;28;20539;-91
2023/09/01 00:07:31;;;;;;;15.27;5.72;;;;;;;14.36;100.00;95046.91;5608429;23;20013;-89
2023/09/01 00:09:57;;;;;;;8.15;4.35;;;;;;;14.36;100.00;95052.09;5353943;23;20049;-92
2023/09/01 00:12:22;;;;;;;9.60;4.88;;;;;;;14.59;100.00;95055.25;5009509;28;20038;-95
2023/09/01 00:14:47;;;;;;;7.32;4.70;;;;;;;14.65;100.00;95041.44;5009634;28;20103;-94
2023/09/01 00:17:14;;;;;;;10.27;4.32;;;;;;;14.36;100.00;95041.69;4992500;28;20037;-96
2023/09/01 00:19:40;;;;;;;6.05;4.45;;;;;;;14.43;100.00;95042.53;5012340;28;20062;-93
2023/09/01 00:22:05;;;;;;;7.80;3.88;;;;;;;14.38;100.00;95039.72;5013132;28;20583;-96
2023/09/01 00:24:32;;;;;;;5.57;3.95;;;;;;;14.36;100.00;95042.50;5014434;28;20057;-96
2023/09/01 00:26:58;;;;;;;8.70;4.20;;;;;;;14.47;100.00;95056.81;5013595;28;20113;-94
2023/09/01 00:29:23;;;;;;;6.40;4.60;;;;;;;14.53;100.00;95049.03;5013116;28;20033;-94
2023/09/01 00:31:49;;;;;;;4.93;4.35;;;;;;;14.53;100.00;95050.81;5013782;28;20030;-93
2023/09/01 00:34:14;;;;;;;5.38;4.55;;;;;;;14.56;100.00;95042.63;5013743;28;20144;-95
2023/09/01 00:36:40;;;;;;;7.30;4.07;;;;;;;14.51;100.00;95034.59;5014306;28;20091;-96
2023/09/01 00:39:06;;;;;;;8.65;4.50;;;;;;;14.44;100.00;95038.94;5013275;28;20403;-95
2023/09/01 00:41:31;;;;;;;4.30;3.80;;;;;;;14.52;100.00;95028.34;5013077;28;20022;-94
2023/09/01 00:43:57;;;;;;;4.55;3.90;;;;;;;14.38;100.00;95037.91;5012810;28;20052;-95
2023/09/01 00:46:22;;;;;;;10.80;4.75;;;;;;;14.36;100.00;95039.91;5014424;28;20553;-96
2023/09/01 00:48:48;;;;;;;5.57;3.67;;;;;;;14.34;100.00;95028.06;5012634;28;20484;-94
2023/09/01 00:51:14;;;;;;;5.43;4.18;;;;;;;14.44;100.00;95031.94;5012356;28;20021;-94
2023/09/01 00:53:40;;;;;;;7.43;4.45;;;;;;;14.32;100.00;95030.03;5013779;28;20172;-94
2023/09/01 00:56:05;;;;;;;5.18;4.40;;;;;;;14.19;100.00;95039.34;5011817;28;20042;-93
2023/09/01 00:58:31;;;;;;;5.78;4.75;;;;;;;14.31;100.00;95039.66;5012714;28;20113;-94
2023/09/01 01:00:58;;;;;;;6.57;4.45;;;;;;;14.19;100.00;95046.38;5012774;28;20475;-94
2023/09/01 01:03:24;;;;;;;7.43;4.03;;;;;;;14.04;100.00;95043.88;5013619;28;20530;-93
2023/09/01 01:08:40;;;;;;;5.78;4.85;;;;;;;13.87;100.00;95072.97;5137438;22;20054;-94
2023/09/01 01:11:11;;;;;;;6.22;4.30;;;;;;;13.81;100.00;95073.69;5014094;28;20187;-91
2023/09/01 01:13:47;;;;;;;6.43;4.53;;;;;;;13.67;100.00;95078.00;5177422;22;20053;-91
2023/09/01 01:16:16;;;;;;;7.32;4.55;;;;;;;13.69;100.00;95094.25;4999345;28;20025;-92
2023/09/01 01:18:43;;;;;;;6.47;4.60;;;;;;;13.74;100.00;95094.50;5015907;28;20058;-93
2023/09/01 01:21:16;;;;;;;8.77;4.82;;;;;;;13.69;100.00;95096.84;5015070;28;20029;-93
2023/09/01 01:23:42;;;;;;;8.60;4.82;;;;;;;13.71;100.00;95094.84;5015002;28;20174;-92
2023/09/01 01:26:13;;;;;;;9.05;4.45;;;;;;;13.58;100.00;95103.34;5016958;28;20025;-92
2023/09/01 02:08:38;;;;;;;7.80;5.35;;;;;;;13.05;100.00;95119.31;5984121;23;20028;-91
2023/09/01 02:36:25;;;;;;;5.38;4.53;;;;;;;13.10;100.00;95122.22;5965619;23;20275;-93
2023/09/01 02:38:51;;;;;;;9.23;5.10;;;;;;;13.20;100.00;95110.53;5011963;28;20038;-94
2023/09/01 02:41:16;;;;;;;5.60;4.78;;;;;;;13.26;100.00;95108.22;5010975;28;20395;-93
2023/09/01 02:43:42;;;;;;;9.57;5.35;;;;;;;13.30;100.00;95105.03;5011568;28;20025;-93
2023/09/01 02:46:07;;;;;;;7.07;5.03;;;;;;;13.17;100.00;95123.09;5011705;28;20022;-91
2023/09/01 03:06:39;;;;;;;6.75;4.97;;;;;;;13.15;100.00;95162.31;5831668;22;20083;-92
2023/09/01 03:09:04;;;;;;;6.63;5.13;;;;;;;13.10;100.00;95154.22;5025588;28;20086;-91
2023/09/01 03:11:29;;;;;;;9.43;5.35;;;;;;;13.15;100.00;95149.31;5431529;22;20403;-96
2023/09/01 03:13:55;;;;;;;8.35;5.50;;;;;;;13.19;100.00;95145.34;4974555;28;20027;-94
2023/09/01 03:16:21;;;;;;;9.40;4.85;;;;;;;13.20;100.00;95135.72;4991957;28;20041;-94
2023/09/01 03:18:47;;;;;;;5.45;4.95;;;;;;;13.09;100.00;95139.63;4975211;28;20136;-92
2023/09/01 03:21:13;;;;;;;8.82;5.63;;;;;;;13.00;100.00;95142.47;5002253;28;20086;-92
2023/09/01 03:26:14;;;;;;;11.45;5.22;;;;;;;12.88;100.00;95133.50;5498618;22;20140;-90
2023/09/01 03:28:40;;;;;;;11.35;5.88;;;;;;;12.90;100.00;95150.53;5006707;28;20026;-91
2023/09/01 03:31:10;;;;;;;15.65;5.75;;;;;;;12.90;100.00;95141.94;5016754;28;20545;-93
2023/09/01 03:33:36;;;;;;;10.82;5.82;;;;;;;13.01;100.00;95144.88;5017000;28;20101;-91
2023/09/01 03:36:03;;;;;;;12.55;5.63;;;;;;;13.00;100.00;95135.47;5016025;28;20102;-93
2023/09/01 03:38:28;;;;;;;8.80;5.25;;;;;;;12.87;100.00;95143.13;5010853;28;20032;-92
2023/09/01 03:48:39;;;;;;;5.65;5.13;;;;;;;12.81;100.00;95145.63;5534216;22;20065;-91
2023/09/01 03:51:10;;;;;;;48.55;8.73;;;;;;;12.80;100.00;95142.22;5010589;28;20030;-92
2023/09/01 03:53:36;;;;;;;15.98;5.53;;;;;;;12.83;100.00;95144.44;5014017;28;20109;-92
2023/09/01 03:58:46;;;;;;;12.80;9.10;;;;;;;12.74;100.00;95129.94;5095582;22;20061;-89
2023/09/01 04:08:57;;;;;;;33.67;27.23;;;;;;;12.77;100.00;95162.56;5779167;22;20057;-92
2023/09/01 04:11:22;;;;;;;20.58;14.90;;;;;;;12.85;100.00;95152.88;4999851;28;20549;-95
2023/09/01 04:13:47;;;;;;;9.18;7.05;;;;;;;12.84;100.00;95156.47;5017802;28;20029;-93
2023/09/01 04:16:13;;;;;;;7.18;5.95;;;;;;;12.86;100.00;95154.50;5016563;28;20034;-93
2023/09/01 04:26:24;;;;;;;12.02;8.73;;;;;;;13.04;100.00;95164.50;5889438;22;20116;-94
2023/09/01 04:28:50;;;;;;;11.35;7.18;;;;;;;13.18;100.00;95158.53;5018345;28;20030;-94
2023/09/01 04:31:24;;;;;;;12.52;5.40;;;;;;;13.34;100.00;95149.72;5015092;28;20514;-93
2023/09/01 04:33:50;;;;;;;6.97;5.20;;;;;;;13.45;100.00;95144.06;5013102;28;20029;-93
2023/09/01 04:36:16;;;;;;;12.23;6.53;;;;;;;13.84;100.00;95131.41;5012099;28;20032;-94
2023/09/01 04:38:41;;;;;;;24.70;14.48;;;;;;;14.08;100.00;95086.78;5010574;28;20058;-94
2023/09/01 04:41:07;;;;;;;22.38;12.80;;;;;;;14.27;100.00;95091.31;5013255;28;20072;-95
2023/09/01 04:43:32;;;;;;;20.02;14.82;;;;;;;15.01;100.00;95078.53;5011948;28;20029;-92
2023/09/01 04:45:58;;;;;;;18.95;14.60;;;;;;;16.78;100.00;95030.81;4995939;28;20053;-93
2023/09/01 04:48:24;;;;;;;13.23;11.27;;;;;;;18.13;100.00;95010.28;5002725;28;20084;-92
2023/09/01 04:50:50;;;;;;;9.75;8.80;;;;;;;19.04;100.00;94999.03;5005602;28;20014;-91
2023/09/01 04:53:16;;;;;;;10.02;6.57;;;;;;;19.28;100.00;94993.63;5011431;28;20400;-91
2023/09/01 04:55:44;;;;;;;7.22;3.90;;;;;;;19.22;100.00;95005.03;5010609;28;20479;-93
2023/09/01 04:58:10;;;;;;;5.45;3.65;;;;;;;20.08;100.00;95004.56;5012808;28;20026;-92
2023/09/01 05:00:37;;;;;;;5.22;3.63;;;;;;;20.79;100.00;94992.97;5010142;28;20116;-91
2023/09/01 05:03:02;;;;;;;4.00;3.65;;;;;;;20.71;100.00;94996.00;5012784;28;20071;-91
2023/09/01 05:05:28;;;;;;;4.30;3.20;;;;;;;20.97;100.00;94987.53;5009046;28;20438;-90
2023/09/01 05:07:53;;;;;;;5.97;3.55;;;;;;;21.23;100.00;94994.13;5012165;28;20045;-91
2023/09/01 05:10:19;;;;;;;6.07;3.63;;;;;;;21.58;100.00;94994.75;5010857;28;20403;-89
2023/09/01 05:12:44;;;;;;;5.18;3.90;;;;;;;21.49;100.00;94983.81;5010218;28;20026;-90
2023/09/01 05:15:10;;;;;;;7.75;3.92;;;;;;;22.52;95.18;94996.53;5010817;28;20076;-91
2023/09/01 05:17:35;;;;;;;9.63;4.53;;;;;;;22.73;92.63;95002.13;5010626;28;20022;-90
2023/09/01 05:20:01;;;;;;;5.20;4.03;;;;;;;23.19;88.76;94991.03;5011422;28;20026;-91
2023/09/01 05:22:27;;;;;;;4.63;4.22;;;;;;;23.00;91.18;95000.34;5010772;28;20018;-91
2023/09/01 05:24:53;;;;;;;4.30;3.90;;;;;;;23.47;89.09;94998.78;5012196;28;20403;-89
2023/09/01 05:27:19;;;;;;;5.07;3.70;;;;;;;23.78;86.25;94999.06;5010097;28;20049;-89
2023/09/01 05:29:45;;;;;;;5.13;4.63;;;;;;;24.02;84.40;94998.47;5010339;28;20034;-90
2023/09/01 05:32:11;;;;;;;6.00;3.83;;;;;;;24.17;82.45;95005.78;5012136;28;20408;-90
2023/09/01 05:34:37;;;;;;;4.78;3.90;;;;;;;24.69;80.22;95003.22;5010331;28;20632;-91
2023/09/01 05:37:02;;;;;;;3.50;3.20;;;;;;;25.43;78.46;95005.66;5011719;28;20030;-90
2023/09/01 05:39:28;;;;;;;3.63;3.38;;;;;;;25.30;77.06;95006.16;5010461;28;20032;-90
2023/09/01 05:41:54;;;;;;;3.78;3.30;;;;;;;25.73;75.47;95005.72;5011807;28;20448;-91
2023/09/01 05:44:20;;;;;;;5.30;3.80;;;;;;;25.92;75.31;95004.16;5010881;28;20403;-88
2023/09/01 05:46:45;;;;;;;7.05;3.85;;;;;;;26.72;71.66;95007.81;5009938;28;20398;-89
2023/09/01 05:49:11;;;;;;;4.70;3.45;;;;;;;26.98;69.31;95003.25;5011522;28;20055;-90
2023/09/01 05:51:36;;;;;;;5.95;3.80;;;;;;;28.70;61.69;95011.75;5010395;28;20020;-90
2023/09/01 05:54:02;;;;;;;4.40;4.00;;;;;;;28.65;58.01;95013.63;5011545;28;20076;-91
2023/09/01 05:56:27;;;;;;;5.22;4.05;;;;;;;29.31;57.35;95021.78;5009645;28;20096;-88
2023/09/01 05:58:53;;;;;;;6.75;3.70;;;;;;;29.94;54.88;95024.13;5011370;28;20022;-89
2023/09/01 06:01:18;;;;;;;4.82;4.43;;;;;;;28.56;58.35;95037.47;5009841;28;20094;-91
2023/09/01 06:03:44;;;;;;;7.75;3.88;;;;;;;28.31;59.30;95023.56;5010268;28;20026;-88
2023/09/01 06:06:09;;;;;;;6.18;4.65;;;;;;;28.70;57.54;95026.97;5008949;28;20550;-89
2023/09/01 06:08:35;;;;;;;7.78;4.03;;;;;;;27.53;63.68;95027.00;5010432;28;20061;-91
2023/09/01 06:11:05;;;;;;;6.00;4.28;;;;;;;27.51;62.16;95026.47;5011009;28;20034;-92
2023/09/01 06:13:31;;;;;;;6.60;3.95;;;;;;;27.44;62.90;95027.84;4992464;28;20654;-90
2023/09/01 06:15:56;;;;;;;5.45;4.00;;;;;;;27.17;64.50;95031.63;5010062;28;20026;-89
2023/09/01 06:18:22;;;;;;;5.70;4.85;;;;;;;27.03;64.70;95041.28;5008680;28;20480;-88
2023/09/01 06:20:47;;;;;;;7.53;4.00;;;;;;;26.65;68.38;95042.66;5010779;28;20026;-89
2023/09/01 06:23:13;;;;;;;4.90;3.78;;;;;;;25.89;70.69;95046.34;5009746;28;20332;-90
2023/09/01 06:25:38;;;;;;;5.28;4.00;;;;;;;26.17;72.19;95046.69;5010239;28;20018;-89
2023/09/01 06:28:03;;;;;;;4.90;3.83;;;;;;;25.59;73.62;95041.81;5009429;28;20672;-91
2023/09/01 06:30:29;;;;;;;4.35;3.95;;;;;;;26.87;67.51;95052.22;5008855;28;20024;-92
2023/09/01 06:32:54;;;;;;;6.72;4.32;;;;;;;28.85;58.05;95040.13;5011130;28;20025;-91
2023/09/01 06:35:20;;;;;;;7.25;4.18;;;;;;;30.35;51.77;95038.44;5009430;28;20069;-90
2023/09/01 06:37:45;;;;;;;4.07;3.58;;;;;;;31.30;48.08;95051.25;5010886;28;20113;-92
2023/09/01 06:40:11;;;;;;;7.67;3.63;;;;;;;31.43;48.04;95055.00;5007959;28;20029;-89
2023/09/01 06:42:36;;;;;;;5.23;3.70;;;;;;;32.08;46.18;95055.50;5010714;28;20570;-93
2023/09/01 06:45:03;;;;;;;5.13;3.53;;;;;;;32.02;45.94;95054.81;5009713;28;20034;-90
2023/09/01 06:47:28;;;;;;;5.50;3.38;;;;;;;32.23;45.80;95060.56;5011202;28;20105;-92
2023/09/01 06:49:54;;;;;;;4.17;3.40;;;;;;;33.12;42.36;95058.59;5009461;28;20113;-88
2023/09/01 06:52:19;;;;;;;7.33;3.53;;;;;;;33.38;41.69;95062.19;5008697;28;20405;-91
2023/09/01 06:54:44;;;;;;;6.37;3.33;;;;;;;33.88;41.30;95065.31;5010627;28;20029;-96
2023/09/01 06:57:10;;;;;;;4.83;3.43;;;;;;;34.01;40.83;95065.47;5008307;28;20164;-89
2023/09/01 06:59:35;;;;;;;4.03;3.17;;;;;;;34.37;40.02;95058.72;5009743;28;20026;-89
2023/09/01 07:02:01;;;;;;;3.83;3.10;;;;;;;34.30;39.81;95060.31;5008068;28;20026;-91
2023/09/01 07:04:26;;;;;;;3.30;3.00;;;;;;;34.23;40.52;95060.00;5010143;28;20414;-93
2023/09/01 07:06:52;;;;;;;3.90;3.50;;;;;;;34.13;40.30;95058.41;5009755;28;20026;-94
2023/09/01 07:09:18;;;;;;;4.83;3.57;;;;;;;34.30;39.37;95066.47;5009974;28;20034;-94
2023/09/01 07:11:43;;;;;;;6.30;3.10;;;;;;;34.79;38.82;95061.69;5010722;28;20029;-94
2023/09/01 07:14:09;;;;;;;4.60;3.30;;;;;;;35.62;37.75;95073.63;5009453;28;20403;-85
2023/09/01 07:16:34;;;;;;;8.30;3.77;;;;;;;35.44;37.72;95072.13;5009997;28;20108;-96
2023/09/01 07:19:00;;;;;;;3.53;3.23;;;;;;;34.30;39.53;95071.84;5009380;28;20083;-88
2023/09/01 07:21:25;;;;;;;5.73;3.37;;;;;;;34.43;38.57;95065.53;5010514;28;20025;-88
2023/09/01 07:23:50;;;;;;;3.47;3.17;;;;;;;35.22;37.62;95066.97;5009316;28;20311;-92
2023/09/01 07:26:16;;;;;;;3.37;3.07;;;;;;;35.29;36.51;95068.03;5010220;28;20025;-93
2023/09/01 07:28:41;;;;;;;4.60;2.80;;;;;;;34.38;38.96;95070.28;4993797;28;20468;-95
2023/09/01 07:31:12;;;;;;;4.32;3.60;;;;;;;35.13;38.11;95077.00;5009897;28;20097;-96
2023/09/01 07:33:41;;;;;;;5.80;3.55;;;;;;;34.58;39.60;95069.59;5009678;28;20134;-96
2023/09/01 07:36:08;;;;;;;5.20;3.75;;;;;;;30.21;48.63;95067.03;5009386;28;20033;-95
2023/09/01 07:38:33;;;;;;;4.72;3.90;;;;;;;29.43;53.96;95062.19;5010173;28;20029;-96
2023/09/01 07:40:59;;;;;;;6.63;3.47;;;;;;;28.71;57.44;95073.88;5008151;28;20608;-94
2023/09/01 07:43:24;;;;;;;4.45;4.03;;;;;;;28.21;58.64;95065.22;5010097;28;20029;-89
2023/09/01 07:45:50;;;;;;;6.72;3.85;;;;;;;27.86;62.29;95069.94;5009721;28;20411;-93
2023/09/01 07:48:16;;;;;;;5.00;3.38;;;;;;;28.17;59.98;95066.03;5009189;28;20065;-95
2023/09/01 07:50:42;;;;;;;5.88;3.97;;;;;;;28.21;59.61;95059.06;5011733;28;20026;-94
2023/09/01 07:53:07;;;;;;;4.53;3.20;;;;;;;27.70;62.26;95064.72;5008439;28;20032;-96
2023/09/01 07:55:33;;;;;;;4.15;3.72;;;;;;;28.37;61.56;95057.88;5011255;28;20030;-94
2023/09/01 07:57:59;;;;;;;5.30;3.78;;;;;;;28.14;62.22;95069.25;4993795;28;20121;-94
2023/09/01 08:00:24;;;;;;;4.32;3.92;;;;;;;27.44;61.31;95057.13;5011493;28;20498;-90
2023/09/01 08:02:49;;;;;;;5.53;3.60;;;;;;;26.44;66.04;95054.38;5008638;28;20109;-95
2023/09/01 08:05:15;;;;;;;5.78;4.15;;;;;;;26.79;65.47;95052.72;5007648;28;20056;-94
2023/09/01 08:07:41;;;;;;;4.55;3.45;;;;;;;27.74;64.90;95059.63;5010418;28;20029;-94
2023/09/01 08:10:09;;;;;;;5.30;3.70;;;;;;;28.34;61.00;95054.97;5010011;28;20053;-95
2023/09/01 08:12:34;;;;;;;5.28;3.90;;;;;;;28.23;62.06;95051.59;5010207;28;20029;-95
2023/09/01 08:15:00;;;;;;;6.18;3.95;;;;;;;28.04;63.36;95056.75;5009113;28;20025;-96
2023/09/01 08:17:25;;;;;;;6.65;3.83;;;;;;;27.99;63.38;95045.34;5012123;28;20036;-93
2023/09/01 08:19:50;;;;;;;5.20;3.42;;;;;;;28.59;60.39;95050.22;5008602;28;20022;-95
2023/09/01 08:22:16;;;;;;;3.88;3.40;;;;;;;28.41;60.71;95045.59;5011321;28;20028;-95
2023/09/01 08:24:43;;;;;;;7.05;3.95;;;;;;;28.39;59.78;95052.25;5009475;28;20030;-93
2023/09/01 08:27:08;;;;;;;3.60;3.30;;;;;;;28.44;60.14;95047.69;5011064;28;20042;-95
2023/09/01 08:29:34;;;;;;;4.43;3.55;;;;;;;28.40;59.83;95043.19;5009820;28;20483;-90
2023/09/01 08:32:00;;;;;;;3.35;3.05;;;;;;;28.49;58.72;95041.50;5009915;28;20022;-96
2023/09/01 08:34:27;;;;;;;3.58;3.28;;;;;;;28.72;58.59;95044.25;5009699;28;20069;-94
2023/09/01 08:36:52;;;;;;;4.65;3.78;;;;;;;28.49;57.50;95042.31;4991002;28;20088;-93
2023/09/01 08:39:18;;;;;;;4.50;3.88;;;;;;;27.63;59.38;95034.13;5008622;28;20030;-86
2023/09/01 08:41:44;;;;;;;5.28;3.45;;;;;;;26.96;62.08;95032.78;5010305;28;20084;-90
2023/09/01 08:44:11;;;;;;;4.35;3.95;;;;;;;27.25;62.17;95032.94;5010905;28;20021;-88
2023/09/01 08:46:37;;;;;;;5.28;3.58;;;;;;;28.20;61.17;95030.81;5013965;28;20026;-90
2023/09/01 08:49:03;;;;;;;4.43;3.83;;;;;;;27.93;59.54;95019.81;5012540;28;20026;-96
2023/09/01 08:51:29;;;;;;;3.83;3.50;;;;;;;28.59;59.21;95025.44;5012945;28;20042;-93
2023/09/01 08:53:55;;;;;;;3.85;3.55;;;;;;;28.62;55.96;95027.53;5012267;28;20411;-93
2023/09/01 08:56:20;;;;;;;3.63;3.35;;;;;;;28.33;56.29;95022.19;5011810;28;20133;-94
2023/09/01 08:58:46;;;;;;;4.00;3.60;;;;;;;28.18;57.43;95033.00;5011056;28;20411;-93
2023/09/01 09:01:13;;;;;;;3.75;3.42;;;;;;;28.43;57.28;95022.09;5011868;28;20025;-93
2023/09/01 09:03:39;;;;;;;4.03;3.70;;;;;;;28.53;58.82;95016.69;5010621;28;20030;-93
2023/09/01 09:06:05;;;;;;;3.92;3.63;;;;;;;28.82;55.32;95019.34;5013420;28;20030;-91
2023/09/01 09:08:30;;;;;;;4.07;3.20;;;;;;;28.77;55.77;95024.72;5012065;28;20033;-96
2023/09/01 09:10:56;;;;;;;3.90;3.60;;;;;;;28.74;56.05;95025.28;5011973;28;20026;-96
2023/09/01 09:13:28;;;;;;;4.20;3.80;;;;;;;28.07;56.67;95018.13;5011319;28;20505;-92
2023/09/01 09:16:09;;;;;;;5.07;4.35;;;;;;;26.55;59.89;95021.41;5011745;28;20538;-90
2023/09/01 09:18:35;;;;;;;4.55;3.83;;;;;;;27.39;60.27;95017.19;5012434;28;20041;-89
2023/09/01 09:21:01;;;;;;;5.15;4.07;;;;;;;28.13;57.38;95020.47;5010012;28;20037;-95
2023/09/01 09:23:45;;;;;;;5.95;5.30;;;;;;;28.49;54.44;95015.66;4994829;28;20109;-90
2023/09/01 09:26:11;;;;;;;5.80;5.30;;;;;;;28.69;56.67;95020.03;5010775;28;20511;-91
2023/09/01 09:28:37;;;;;;;5.60;4.45;;;;;;;28.70;56.90;95011.75;5011633;28;20084;-87
2023/09/01 09:31:03;;;;;;;7.65;3.80;;;;;;;28.76;55.63;95004.50;5011185;28;20033;-90
2023/09/01 09:33:30;;;;;;;5.32;4.35;;;;;;;28.13;55.52;95004.50;5009296;28;20595;-92
2023/09/01 09:35:55;;;;;;;3.88;3.58;;;;;;;28.75;55.35;94995.69;5011284;28;20018;-91
2023/09/01 09:38:21;;;;;;;8.50;4.20;;;;;;;27.82;57.27;94995.13;5009155;28;20032;-84
2023/09/01 09:40:57;;;;;;;4.15;3.65;;;;;;;28.52;54.75;94999.09;5012845;28;20033;-92
2023/09/01 09:43:22;;;;;;;4.20;3.90;;;;;;;28.75;55.13;95001.03;5010465;28;20045;-91
2023/09/01 09:45:48;;;;;;;3.85;3.55;;;;;;;28.48;54.88;95005.28;5010249;28;20061;-84
2023/09/01 09:48:15;;;;;;;5.65;3.60;;;;;;;28.09;55.34;94995.50;5009033;28;20475;-87
2023/09/01 09:50:40;;;;;;;5.18;3.88;;;;;;;28.55;55.40;94995.84;5008386;28;20022;-87
2023/09/01 09:53:06;;;;;;;4.28;3.83;;;;;;;28.67;54.64;95001.63;5010200;28;20502;-88
2023/09/01 09:55:33;;;;;;;4.13;3.35;;;;;;;28.36;53.50;94994.97;5008838;28;20060;-84
2023/09/01 09:58:04;;;;;;;4.13;3.60;;;;;;;28.87;54.04;95000.63;5010060;28;20034;-86
2023/09/01 10:00:40;;;;;;;4.57;4.18;;;;;;;28.74;53.90;94994.09;5008379;28;20030;-93
2023/09/01 10:03:07;;;;;;;3.92;3.63;;;;;;;28.95;55.14;95002.69;5010519;28;20583;-91
2023/09/01 10:05:33;;;;;;;6.82;3.60;;;;;;;28.95;52.83;94989.34;5010530;28;20033;-83
2023/09/01 10:08:04;;;;;;;6.90;3.45;;;;;;;28.94;53.95;94994.94;5008538;28;20025;-88
2023/09/01 10:10:33;;;;;;;5.93;4.10;;;;;;;28.06;54.99;94995.25;5010824;28;20030;-88
2023/09/01 10:13:04;;;;;;;4.18;3.88;;;;;;;27.95;56.70;94991.03;5008028;28;20105;-86
2023/09/01 10:15:31;;;;;;;4.65;3.95;;;;;;;29.00;54.55;94986.59;5010367;28;20037;-91
2023/09/01 10:18:03;;;;;;;4.30;3.70;;;;;;;28.70;52.21;94979.75;5009603;28;20133;-91
2023/09/01 10:20:33;;;;;;;5.90;3.53;;;;;;;29.04;53.86;94974.28;5009528;28;20514;-91
2023/09/01 10:23:02;;;;;;;5.43;3.63;;;;;;;28.71;53.35;94983.19;4993109;28;20493;-89
2023/09/01 10:25:28;;;;;;;5.10;4.20;;;;;;;28.24;55.78;94982.03;5008363;28;20206;-91
2023/09/01 10:28:05;;;;;;;4.30;3.90;;;;;;;26.95;60.69;94985.19;5010630;28;20060;-89
2023/09/01 10:30:40;;;;;;;4.47;3.85;;;;;;;28.30;56.49;94984.63;5009272;28;20030;-83
2023/09/01 10:33:10;;;;;;;4.28;3.25;;;;;;;27.94;52.18;94973.44;5010712;28;20462;-87
2023/09/01 10:35:46;;;;;;;5.57;3.50;;;;;;;28.22;54.19;94976.16;5009017;28;20033;-91
2023/09/01 10:38:17;;;;;;;6.45;3.90;;;;;;;28.51;54.41;94973.50;4992069;28;20494;-90
2023/09/01 10:40:47;;;;;;;6.75;4.30;;;;;;;28.95;51.83;94970.66;5010548;28;20022;-88
2023/09/01 10:43:15;;;;;;;4.43;3.80;;;;;;;29.02;51.53;94973.00;5011107;28;20041;-95
2023/09/01 10:45:40;;;;;;;4.43;4.03;;;;;;;28.84;53.45;94968.38;5008933;28;20038;-88
2023/09/01 10:48:11;;;;;;;5.68;4.10;;;;;;;28.80;52.41;94962.84;5009859;28;20057;-85
2023/09/01 10:50:40;;;;;;;5.85;3.38;;;;;;;29.15;51.45;94964.28;5010556;28;20026;-87
2023/09/01 10:53:29;;;;;;;4.50;2.97;;;;;;;29.28;49.26;94950.25;5008810;28;20033;-92
2023/09/01 10:56:04;;;;;;;4.20;3.50;;;;;;;29.00;51.37;94961.78;5007674;28;20109;-81
2023/09/01 10:58:40;;;;;;;4.10;3.70;;;;;;;28.32;53.13;94966.50;5008214;28;20036;-80
2023/09/01 11:01:24;;;;;;;4.28;3.70;;;;;;;27.53;55.53;94955.13;5006471;28;20036;-89
2023/09/01 11:03:49;;;;;;;4.20;3.80;;;;;;;28.27;54.47;94959.34;5009427;28;20104;-89
2023/09/01 11:06:15;;;;;;;3.97;3.63;;;;;;;28.25;52.77;94949.00;5007644;28;20102;-85
2023/09/01 11:08:41;;;;;;;5.63;3.70;;;;;;;28.27;52.45;94946.81;5007713;28;20518;-85
2023/09/01 11:11:08;;;;;;;4.68;3.70;;;;;;;28.33;53.69;94942.22;4992015;28;20400;-93
2023/09/01 11:13:33;;;;;;;3.78;3.58;;;;;;;28.62;52.64;94936.88;5008500;28;20037;-89
2023/09/01 11:16:07;;;;;;;3.85;3.55;;;;;;;28.65;52.56;94936.28;4992240;28;20029;-85
2023/09/01 11:18:33;;;;;;;4.22;3.92;;;;;;;28.65;53.73;94930.97;5007440;28;20037;-87
2023/09/01 11:21:00;;;;;;;3.88;3.58;;;;;;;28.74;53.48;94934.63;5009767;28;20400;-91
2023/09/01 11:23:27;;;;;;;3.58;3.38;;;;;;;28.38;52.80;94928.88;5009167;28;20022;-89
2023/09/01 11:26:05;;;;;;;4.00;3.60;;;;;;;28.39;52.94;94926.97;5007559;28;20030;-87
2023/09/01 11:28:30;;;;;;;3.90;3.50;;;;;;;28.40;51.66;94923.25;5009160;28;20073;-85
2023/09/01 11:30:56;;;;;;;4.82;3.88;;;;;;;28.00;53.33;94919.09;5007333;28;20057;-90
2023/09/01 11:33:23;;;;;;;5.18;3.40;;;;;;;28.84;53.17;94918.50;5008500;28;20112;-90
2023/09/01 11:35:49;;;;;;;4.60;4.10;;;;;;;29.06;51.59;94909.97;4990688;28;20414;-88
2023/09/01 11:38:21;;;;;;;4.03;3.55;;;;;;;28.93;50.71;94911.44;5007341;28;20140;-90
2023/09/01 11:40:50;;;;;;;3.88;3.63;;;;;;;28.83;52.38;94902.78;5008469;28;20093;-90
2023/09/01 11:43:16;;;;;;;4.10;3.80;;;;;;;28.78;53.23;94900.97;5006477;28;20109;-83
2023/09/01 11:45:46;;;;;;;4.07;3.60;;;;;;;28.80;53.49;94898.81;5007269;28;20168;-87
2023/09/01 11:48:11;;;;;;;4.20;3.80;;;;;;;28.83;52.96;94897.47;5005714;28;20029;-85
2023/09/01 11:50:43;;;;;;;4.18;3.88;;;;;;;28.49;53.19;94903.69;5008783;28;20022;-84
2023/09/01 11:53:09;;;;;;;3.92;3.67;;;;;;;28.51;52.76;94896.19;5005882;28;20479;-88
2023/09/01 11:55:43;;;;;;;5.20;3.83;;;;;;;28.30;52.73;94902.03;5007625;28;20084;-85
2023/09/01 11:58:08;;;;;;;4.18;3.88;;;;;;;28.24;52.69;94896.75;4991212;28;20058;-89
2023/09/01 12:00:36;;;;;;;3.72;3.53;;;;;;;27.82;53.67;94893.91;5006572;28;20053;-85
2023/09/01 12:03:03;;;;;;;4.13;3.72;;;;;;;27.70;54.12;94891.63;4991536;28;20411;-90
2023/09/01 12:05:34;;;;;;;4.20;3.80;;;;;;;27.59;55.07;94892.78;5007958;28;20065;-90
2023/09/01 12:08:01;;;;;;;6.15;3.90;;;;;;;27.69;54.48;94897.22;5008084;28;20377;-90
2023/09/01 12:10:27;;;;;;;4.82;3.90;;;;;;;27.97;53.83;94899.09;5007067;28;20132;-88
2023/09/01 12:13:25;;;;;;;3.85;3.35;;;;;;;27.85;52.82;94889.91;5008099;28;20082;-88
2023/09/01 12:16:01;;;;;;;3.70;3.40;;;;;;;27.92;50.87;94890.38;4968324;28;20135;-92
2023/09/01 12:18:30;;;;;;;3.78;3.47;;;;;;;27.73;49.85;94885.75;5009850;28;20030;-85
2023/09/01 12:20:56;;;;;;;3.85;3.53;;;;;;;28.17;51.23;94885.63;5011360;28;20522;-91
2023/09/01 12:23:29;;;;;;;4.63;3.60;;;;;;;28.33;51.67;94883.59;5011475;28;20061;-91
2023/09/01 12:25:55;;;;;;;4.10;3.83;;;;;;;28.27;52.27;94879.41;5012694;28;20025;-90
2023/09/01 12:28:21;;;;;;;4.47;4.18;;;;;;;28.06;53.36;94891.34;5012620;28;20191;-92
2023/09/01 12:30:47;;;;;;;4.45;4.00;;;;;;;28.01;55.05;94884.16;5012832;28;20030;-91
2023/09/01 12:33:12;;;;;;;3.80;3.40;;;;;;;28.24;52.34;94877.31;5012876;28;20022;-90
2023/09/01 12:35:40;;;;;;;3.22;3.03;;;;;;;28.33;48.00;94874.81;5010085;28;20033;-91
2023/09/01 12:38:05;;;;;;;3.60;3.30;;;;;;;28.72;48.83;94876.25;5012420;28;20022;-91
2023/09/01 12:40:31;;;;;;;3.45;3.25;;;;;;;28.20;48.31;94877.06;5010638;28;20030;-89
2023/09/01 12:42:56;;;;;;;3.30;3.10;;;;;;;28.33;47.95;94878.25;5012768;28;20032;-89
2023/09/01 12:45:21;;;;;;;3.65;3.35;;;;;;;28.11;49.00;94881.44;5012255;28;20036;-92
2023/09/01 12:47:47;;;;;;;4.68;3.47;;;;;;;27.82;49.54;94877.16;5011369;28;20065;-86
2023/09/01 12:50:12;;;;;;;3.28;2.97;;;;;;;28.20;49.44;94870.94;5012389;28;20054;-89
2023/09/01 12:52:38;;;;;;;3.45;3.22;;;;;;;28.51;48.24;94864.19;5011690;28;20026;-88
2023/09/01 12:55:03;;;;;;;3.13;2.92;;;;;;;28.29;49.44;94871.91;5013170;28;20022;-86
2023/09/01 12:57:29;;;;;;;3.42;3.22;;;;;;;28.13;51.16;94875.81;5011823;28;20715;-91
2023/09/01 12:59:54;;;;;;;3.22;2.92;;;;;;;27.85;52.46;94868.59;5012529;28;20018;-91
2023/09/01 13:02:20;;;;;;;3.33;2.97;;;;;;;27.53;52.39;94869.94;5010139;28;20049;-89
2023/09/01 13:04:46;;;;;;;3.58;3.30;;;;;;;27.49;52.46;94863.56;5012201;28;20032;-88
2023/09/01 13:07:11;;;;;;;3.60;3.30;;;;;;;27.45;53.57;94875.06;5010700;28;20025;-89
2023/09/01 13:09:37;;;;;;;4.03;2.90;;;;;;;27.42;52.09;94862.28;5011327;28;20467;-89
2023/09/01 13:12:02;;;;;;;4.13;2.95;;;;;;;27.35;52.76;94864.47;5010138;28;20034;-88
2023/09/01 13:14:28;;;;;;;3.53;3.22;;;;;;;27.34;52.82;94873.50;5010784;28;20022;-89
2023/09/01 13:16:53;;;;;;;3.63;3.33;;;;;;;27.27;53.22;94865.84;5011817;28;20511;-88
2023/09/01 13:19:19;;;;;;;3.40;3.10;;;;;;;27.28;53.97;94866.63;5010356;28;20057;-90
2023/09/01 13:21:44;;;;;;;3.50;3.30;;;;;;;27.23;54.99;94873.56;5011932;28;20026;-90